Strona główna
METAR-TAF:

METAR-TAF

Lotnisko :

Topcliffe, Anglia

Szerokość geograficzna: 54-12N, Długość geograficzna: 001-23W, wysokość: 28 m

Aktualna obserwacja pogody

Raport powstał 20 minut temu, godzina 05:50 UTC
Wiatr 7 kt od północny zachód
Temperatura 10°C
Wilgotność 87%
Ciśnienie 1027 hPa
Widzialność 10 km lub więcej

METAR: EGXZ 010550Z AUTO 32007KT 9999 NCD 10/08 Q1027

czas: 07:10 (06:10 UTC)


TAF: brakujący

Obserwacja i prognoza pogody dla ponad 4000 lotnisk (raport METAR i TAF).

Dostępne stacje oznaczono żółtymi i czerwonymi punktami na mapie.

Najedź kursorem aby zobaczyć nazwę stacji.

Kliknij aby zobaczyć obserwacje i prognozy pogody.

Aby zmienić mapę: kliknij na zielony przycisk z czarnym krzyżykiem, aby powiększyć; na zielony przycisk z myślnikiem, aby pomniejszyć; na zielone strzałki, aby przejść do map sąsiednich.


METAR-TAF: